sensor_id;sensor_type;location;lat;lon;timestamp;temperature;humidity
20463;DHT22;10390;53.566;9.980;2023-07-29T00:00:59;27.80;1.00
20463;DHT22;10390;53.566;9.980;2023-07-29T00:03:25;27.80;1.00
20463;DHT22;10390;53.566;9.980;2023-07-29T00:05:51;27.80;1.00
20463;DHT22;10390;53.566;9.980;2023-07-29T00:08:16;27.80;1.00
20463;DHT22;10390;53.566;9.980;2023-07-29T00:10:42;27.80;1.00
20463;DHT22;10390;53.566;9.980;2023-07-29T00:13:08;27.80;1.00
20463;DHT22;10390;53.566;9.980;2023-07-29T00:15:33;27.80;1.00
20463;DHT22;10390;53.566;9.980;2023-07-29T00:17:59;27.80;1.00
20463;DHT22;10390;53.566;9.980;2023-07-29T00:20:25;27.90;1.00
20463;DHT22;10390;53.566;9.980;2023-07-29T00:22:50;27.80;1.00
20463;DHT22;10390;53.566;9.980;2023-07-29T00:25:18;27.80;1.00
20463;DHT22;10390;53.566;9.980;2023-07-29T00:27:44;27.90;1.00
20463;DHT22;10390;53.566;9.980;2023-07-29T00:30:09;27.80;1.00
20463;DHT22;10390;53.566;9.980;2023-07-29T00:32:35;27.90;1.00
20463;DHT22;10390;53.566;9.980;2023-07-29T00:35:01;27.80;1.00
20463;DHT22;10390;53.566;9.980;2023-07-29T00:37:28;27.80;1.00
20463;DHT22;10390;53.566;9.980;2023-07-29T00:39:53;27.80;1.00
20463;DHT22;10390;53.566;9.980;2023-07-29T00:42:19;27.80;1.00
20463;DHT22;10390;53.566;9.980;2023-07-29T00:44:44;27.80;1.00
20463;DHT22;10390;53.566;9.980;2023-07-29T00:47:11;27.80;1.00
20463;DHT22;10390;53.566;9.980;2023-07-29T00:49:38;27.80;1.00
20463;DHT22;10390;53.566;9.980;2023-07-29T00:52:03;27.80;1.00
20463;DHT22;10390;53.566;9.980;2023-07-29T00:54:29;27.80;1.00
20463;DHT22;10390;53.566;9.980;2023-07-29T00:56:55;27.80;1.00
20463;DHT22;10390;53.566;9.980;2023-07-29T00:59:20;27.80;1.00
20463;DHT22;10390;53.566;9.980;2023-07-29T01:01:52;27.80;1.00
20463;DHT22;10390;53.566;9.980;2023-07-29T01:04:18;27.90;1.00
20463;DHT22;10390;53.566;9.980;2023-07-29T01:07:01;27.80;1.00
20463;DHT22;10390;53.566;9.980;2023-07-29T01:09:51;27.80;1.00
20463;DHT22;10390;53.566;9.980;2023-07-29T01:12:26;27.80;1.00
20463;DHT22;10390;53.566;9.980;2023-07-29T01:17:25;27.80;1.00
20463;DHT22;10390;53.566;9.980;2023-07-29T01:20:19;27.80;1.00
20463;DHT22;10390;53.566;9.980;2023-07-29T01:22:46;27.80;1.00
20463;DHT22;10390;53.566;9.980;2023-07-29T01:25:15;27.80;1.00
20463;DHT22;10390;53.566;9.980;2023-07-29T01:27:43;27.80;1.00
20463;DHT22;10390;53.566;9.980;2023-07-29T01:30:09;27.80;1.00
20463;DHT22;10390;53.566;9.980;2023-07-29T01:37:48;27.90;1.00
20463;DHT22;10390;53.566;9.980;2023-07-29T01:40:15;27.80;1.00
20463;DHT22;10390;53.566;9.980;2023-07-29T01:42:41;27.80;1.00
20463;DHT22;10390;53.566;9.980;2023-07-29T01:45:07;27.80;1.00
20463;DHT22;10390;53.566;9.980;2023-07-29T01:47:32;27.90;1.00
20463;DHT22;10390;53.566;9.980;2023-07-29T01:49:58;27.80;1.00
20463;DHT22;10390;53.566;9.980;2023-07-29T01:52:23;27.90;1.00
20463;DHT22;10390;53.566;9.980;2023-07-29T01:54:49;27.80;1.00
20463;DHT22;10390;53.566;9.980;2023-07-29T01:57:14;27.80;1.00
20463;DHT22;10390;53.566;9.980;2023-07-29T01:59:40;27.80;1.00
20463;DHT22;10390;53.566;9.980;2023-07-29T02:02:06;27.80;1.00
20463;DHT22;10390;53.566;9.980;2023-07-29T02:04:31;27.90;1.00
20463;DHT22;10390;53.566;9.980;2023-07-29T02:06:57;27.90;1.00
20463;DHT22;10390;53.566;9.980;2023-07-29T02:09:22;27.80;1.00
20463;DHT22;10390;53.566;9.980;2023-07-29T02:11:48;27.80;1.00
20463;DHT22;10390;53.566;9.980;2023-07-29T02:14:13;27.80;1.00
20463;DHT22;10390;53.566;9.980;2023-07-29T02:16:39;27.80;1.00
20463;DHT22;10390;53.566;9.980;2023-07-29T02:19:05;27.80;1.00
20463;DHT22;10390;53.566;9.980;2023-07-29T02:21:30;27.80;1.00
20463;DHT22;10390;53.566;9.980;2023-07-29T02:23:56;27.80;1.00
20463;DHT22;10390;53.566;9.980;2023-07-29T02:26:22;27.80;1.00
20463;DHT22;10390;53.566;9.980;2023-07-29T02:28:48;27.80;1.00
20463;DHT22;10390;53.566;9.980;2023-07-29T02:31:19;27.80;1.00
20463;DHT22;10390;53.566;9.980;2023-07-29T02:33:45;27.80;1.00
20463;DHT22;10390;53.566;9.980;2023-07-29T02:36:12;27.80;1.00
20463;DHT22;10390;53.566;9.980;2023-07-29T02:38:38;27.80;1.00
20463;DHT22;10390;53.566;9.980;2023-07-29T02:41:04;27.80;1.00
20463;DHT22;10390;53.566;9.980;2023-07-29T02:43:29;27.80;1.00
20463;DHT22;10390;53.566;9.980;2023-07-29T02:45:55;27.80;1.00
20463;DHT22;10390;53.566;9.980;2023-07-29T02:48:21;27.80;1.00
20463;DHT22;10390;53.566;9.980;2023-07-29T02:50:46;27.80;1.00
20463;DHT22;10390;53.566;9.980;2023-07-29T02:53:12;27.80;1.00
20463;DHT22;10390;53.566;9.980;2023-07-29T02:55:41;27.80;1.00
20463;DHT22;10390;53.566;9.980;2023-07-29T02:58:06;27.80;1.00
20463;DHT22;10390;53.566;9.980;2023-07-29T03:00:32;27.80;1.00
20463;DHT22;10390;53.566;9.980;2023-07-29T03:02:58;27.80;1.00
20463;DHT22;10390;53.566;9.980;2023-07-29T03:05:24;27.80;1.00
20463;DHT22;10390;53.566;9.980;2023-07-29T03:07:50;27.80;1.00
20463;DHT22;10390;53.566;9.980;2023-07-29T03:10:15;27.80;1.00
20463;DHT22;10390;53.566;9.980;2023-07-29T03:12:41;27.80;1.00
20463;DHT22;10390;53.566;9.980;2023-07-29T03:15:07;27.80;1.00
20463;DHT22;10390;53.566;9.980;2023-07-29T03:17:33;27.80;1.00
20463;DHT22;10390;53.566;9.980;2023-07-29T03:19:58;27.80;1.00
20463;DHT22;10390;53.566;9.980;2023-07-29T03:22:24;27.80;1.00
20463;DHT22;10390;53.566;9.980;2023-07-29T03:24:49;27.80;1.00
20463;DHT22;10390;53.566;9.980;2023-07-29T03:27:15;27.80;1.00
20463;DHT22;10390;53.566;9.980;2023-07-29T03:29:41;27.80;1.00
20463;DHT22;10390;53.566;9.980;2023-07-29T03:32:07;27.80;1.00
20463;DHT22;10390;53.566;9.980;2023-07-29T03:34:33;27.80;1.00
20463;DHT22;10390;53.566;9.980;2023-07-29T03:37:00;27.80;1.00
20463;DHT22;10390;53.566;9.980;2023-07-29T03:39:26;27.80;1.00
20463;DHT22;10390;53.566;9.980;2023-07-29T03:41:52;27.80;1.00
20463;DHT22;10390;53.566;9.980;2023-07-29T03:44:17;27.80;1.00
20463;DHT22;10390;53.566;9.980;2023-07-29T03:46:44;27.80;1.00
20463;DHT22;10390;53.566;9.980;2023-07-29T03:49:10;27.80;1.00
20463;DHT22;10390;53.566;9.980;2023-07-29T03:51:35;27.80;1.00
20463;DHT22;10390;53.566;9.980;2023-07-29T03:54:01;27.80;1.00
20463;DHT22;10390;53.566;9.980;2023-07-29T03:56:26;27.80;1.00
20463;DHT22;10390;53.566;9.980;2023-07-29T03:58:52;27.80;1.00
20463;DHT22;10390;53.566;9.980;2023-07-29T04:01:19;27.80;1.00
20463;DHT22;10390;53.566;9.980;2023-07-29T04:03:45;27.80;1.00
20463;DHT22;10390;53.566;9.980;2023-07-29T04:06:11;27.80;1.00
20463;DHT22;10390;53.566;9.980;2023-07-29T04:08:37;27.80;1.00
20463;DHT22;10390;53.566;9.980;2023-07-29T04:11:03;27.80;1.00
20463;DHT22;10390;53.566;9.980;2023-07-29T04:13:29;27.80;1.00
20463;DHT22;10390;53.566;9.980;2023-07-29T04:15:54;27.80;1.00
20463;DHT22;10390;53.566;9.980;2023-07-29T04:18:20;27.80;1.00
20463;DHT22;10390;53.566;9.980;2023-07-29T04:20:45;27.80;1.00
20463;DHT22;10390;53.566;9.980;2023-07-29T04:23:11;27.80;1.00
20463;DHT22;10390;53.566;9.980;2023-07-29T04:25:36;27.80;1.00
20463;DHT22;10390;53.566;9.980;2023-07-29T04:28:02;27.80;1.00
20463;DHT22;10390;53.566;9.980;2023-07-29T04:30:30;27.80;1.00
20463;DHT22;10390;53.566;9.980;2023-07-29T04:32:55;27.80;1.00
20463;DHT22;10390;53.566;9.980;2023-07-29T04:35:21;27.80;1.00
20463;DHT22;10390;53.566;9.980;2023-07-29T04:37:46;27.80;1.00
20463;DHT22;10390;53.566;9.980;2023-07-29T04:40:13;27.80;1.00
20463;DHT22;10390;53.566;9.980;2023-07-29T04:42:39;27.80;1.00
20463;DHT22;10390;53.566;9.980;2023-07-29T04:45:05;27.80;1.00
20463;DHT22;10390;53.566;9.980;2023-07-29T04:47:31;27.80;1.00
20463;DHT22;10390;53.566;9.980;2023-07-29T04:49:56;27.80;1.00
20463;DHT22;10390;53.566;9.980;2023-07-29T04:52:22;27.80;1.00
20463;DHT22;10390;53.566;9.980;2023-07-29T04:54:47;27.80;1.00
20463;DHT22;10390;53.566;9.980;2023-07-29T04:57:13;27.80;1.00
20463;DHT22;10390;53.566;9.980;2023-07-29T04:59:39;27.80;1.00
20463;DHT22;10390;53.566;9.980;2023-07-29T05:02:04;27.80;1.00
20463;DHT22;10390;53.566;9.980;2023-07-29T05:04:30;27.80;1.00
20463;DHT22;10390;53.566;9.980;2023-07-29T05:06:56;27.80;1.00
20463;DHT22;10390;53.566;9.980;2023-07-29T05:09:21;27.80;1.00
20463;DHT22;10390;53.566;9.980;2023-07-29T05:11:47;27.80;1.00
20463;DHT22;10390;53.566;9.980;2023-07-29T05:14:13;27.80;1.00
20463;DHT22;10390;53.566;9.980;2023-07-29T05:16:39;27.80;1.00
20463;DHT22;10390;53.566;9.980;2023-07-29T05:19:05;27.80;1.00
20463;DHT22;10390;53.566;9.980;2023-07-29T05:21:30;27.80;1.00
20463;DHT22;10390;53.566;9.980;2023-07-29T05:23:56;27.80;1.00
20463;DHT22;10390;53.566;9.980;2023-07-29T05:26:22;27.80;1.00
20463;DHT22;10390;53.566;9.980;2023-07-29T05:28:48;27.80;1.00
20463;DHT22;10390;53.566;9.980;2023-07-29T05:31:14;27.80;1.00
20463;DHT22;10390;53.566;9.980;2023-07-29T05:33:40;27.80;1.00
20463;DHT22;10390;53.566;9.980;2023-07-29T05:36:06;27.80;1.00
20463;DHT22;10390;53.566;9.980;2023-07-29T05:38:31;27.80;1.00
20463;DHT22;10390;53.566;9.980;2023-07-29T05:40:57;27.80;1.00
20463;DHT22;10390;53.566;9.980;2023-07-29T05:43:26;27.80;1.00
20463;DHT22;10390;53.566;9.980;2023-07-29T05:45:51;27.80;1.00
20463;DHT22;10390;53.566;9.980;2023-07-29T05:48:21;27.80;1.00
20463;DHT22;10390;53.566;9.980;2023-07-29T05:50:47;27.80;1.00
20463;DHT22;10390;53.566;9.980;2023-07-29T05:53:14;27.80;1.00
20463;DHT22;10390;53.566;9.980;2023-07-29T05:55:40;27.80;1.00
20463;DHT22;10390;53.566;9.980;2023-07-29T05:58:06;27.80;1.00
20463;DHT22;10390;53.566;9.980;2023-07-29T06:00:31;27.80;1.00
20463;DHT22;10390;53.566;9.980;2023-07-29T06:02:57;27.80;1.00
20463;DHT22;10390;53.566;9.980;2023-07-29T06:05:22;27.80;1.00
20463;DHT22;10390;53.566;9.980;2023-07-29T06:07:48;27.80;1.00
20463;DHT22;10390;53.566;9.980;2023-07-29T06:10:15;27.80;1.00
20463;DHT22;10390;53.566;9.980;2023-07-29T06:12:45;27.80;1.00
20463;DHT22;10390;53.566;9.980;2023-07-29T06:15:10;27.90;1.00
20463;DHT22;10390;53.566;9.980;2023-07-29T06:17:37;27.80;1.00
20463;DHT22;10390;53.566;9.980;2023-07-29T06:20:03;27.80;1.00
20463;DHT22;10390;53.566;9.980;2023-07-29T06:22:29;27.80;1.00
20463;DHT22;10390;53.566;9.980;2023-07-29T06:24:55;27.80;1.00
20463;DHT22;10390;53.566;9.980;2023-07-29T06:27:20;27.80;1.00
20463;DHT22;10390;53.566;9.980;2023-07-29T06:29:46;27.80;1.00
20463;DHT22;10390;53.566;9.980;2023-07-29T06:32:11;27.90;1.00
20463;DHT22;10390;53.566;9.980;2023-07-29T06:34:37;27.80;1.00
20463;DHT22;10390;53.566;9.980;2023-07-29T06:37:02;27.80;1.00
20463;DHT22;10390;53.566;9.980;2023-07-29T06:39:28;27.80;1.00
20463;DHT22;10390;53.566;9.980;2023-07-29T06:41:53;27.80;1.00
20463;DHT22;10390;53.566;9.980;2023-07-29T06:44:19;27.80;1.00
20463;DHT22;10390;53.566;9.980;2023-07-29T06:46:45;27.80;1.00
20463;DHT22;10390;53.566;9.980;2023-07-29T06:49:10;27.90;1.00
20463;DHT22;10390;53.566;9.980;2023-07-29T06:51:36;27.90;1.00
20463;DHT22;10390;53.566;9.980;2023-07-29T06:54:02;27.90;1.00
20463;DHT22;10390;53.566;9.980;2023-07-29T06:56:28;27.90;1.00
20463;DHT22;10390;53.566;9.980;2023-07-29T06:58:54;27.90;1.00
20463;DHT22;10390;53.566;9.980;2023-07-29T07:01:19;27.90;1.00
20463;DHT22;10390;53.566;9.980;2023-07-29T07:03:45;27.90;1.00
20463;DHT22;10390;53.566;9.980;2023-07-29T07:06:11;27.90;1.00
20463;DHT22;10390;53.566;9.980;2023-07-29T07:08:36;27.90;1.00
20463;DHT22;10390;53.566;9.980;2023-07-29T07:11:02;27.90;1.00
20463;DHT22;10390;53.566;9.980;2023-07-29T07:13:27;28.00;1.00
20463;DHT22;10390;53.566;9.980;2023-07-29T07:15:56;28.00;1.00
20463;DHT22;10390;53.566;9.980;2023-07-29T07:18:22;27.90;1.00
20463;DHT22;10390;53.566;9.980;2023-07-29T07:20:49;27.90;1.00
20463;DHT22;10390;53.566;9.980;2023-07-29T07:23:15;27.90;1.00
20463;DHT22;10390;53.566;9.980;2023-07-29T07:25:41;27.90;1.00
20463;DHT22;10390;53.566;9.980;2023-07-29T07:28:08;27.90;1.00
20463;DHT22;10390;53.566;9.980;2023-07-29T07:30:34;27.90;1.00
20463;DHT22;10390;53.566;9.980;2023-07-29T07:33:00;27.90;1.00
20463;DHT22;10390;53.566;9.980;2023-07-29T07:35:26;28.00;1.00
20463;DHT22;10390;53.566;9.980;2023-07-29T07:37:51;27.90;1.00
20463;DHT22;10390;53.566;9.980;2023-07-29T07:40:17;27.90;1.00
20463;DHT22;10390;53.566;9.980;2023-07-29T07:42:42;27.90;1.00
20463;DHT22;10390;53.566;9.980;2023-07-29T07:45:08;27.90;1.00
20463;DHT22;10390;53.566;9.980;2023-07-29T07:47:34;28.00;1.00
20463;DHT22;10390;53.566;9.980;2023-07-29T07:49:59;27.90;1.00
20463;DHT22;10390;53.566;9.980;2023-07-29T07:52:25;28.00;1.00
20463;DHT22;10390;53.566;9.980;2023-07-29T07:54:54;27.90;1.00
20463;DHT22;10390;53.566;9.980;2023-07-29T07:57:21;28.00;1.00
20463;DHT22;10390;53.566;9.980;2023-07-29T07:59:47;28.00;1.00
20463;DHT22;10390;53.566;9.980;2023-07-29T08:02:12;27.90;1.00
20463;DHT22;10390;53.566;9.980;2023-07-29T08:04:38;28.00;1.00
20463;DHT22;10390;53.566;9.980;2023-07-29T08:07:04;27.90;1.00
20463;DHT22;10390;53.566;9.980;2023-07-29T08:09:30;27.90;1.00
20463;DHT22;10390;53.566;9.980;2023-07-29T08:11:55;27.90;1.00
20463;DHT22;10390;53.566;9.980;2023-07-29T08:14:21;27.90;1.00
20463;DHT22;10390;53.566;9.980;2023-07-29T08:16:46;27.90;1.00
20463;DHT22;10390;53.566;9.980;2023-07-29T08:19:12;27.90;1.00
20463;DHT22;10390;53.566;9.980;2023-07-29T08:21:38;28.00;1.00
20463;DHT22;10390;53.566;9.980;2023-07-29T08:24:03;28.00;1.00
20463;DHT22;10390;53.566;9.980;2023-07-29T08:26:29;28.00;1.00
20463;DHT22;10390;53.566;9.980;2023-07-29T08:28:55;28.00;1.00
20463;DHT22;10390;53.566;9.980;2023-07-29T08:31:20;28.00;1.00
20463;DHT22;10390;53.566;9.980;2023-07-29T08:33:46;28.00;1.00
20463;DHT22;10390;53.566;9.980;2023-07-29T08:36:11;27.90;1.00
20463;DHT22;10390;53.566;9.980;2023-07-29T08:38:37;28.00;1.00
20463;DHT22;10390;53.566;9.980;2023-07-29T08:41:24;28.00;1.00
20463;DHT22;10390;53.566;9.980;2023-07-29T08:44:06;27.90;1.00
20463;DHT22;10390;53.566;9.980;2023-07-29T08:46:34;28.00;1.00
20463;DHT22;10390;53.566;9.980;2023-07-29T08:49:01;28.00;1.00
20463;DHT22;10390;53.566;9.980;2023-07-29T08:51:28;28.00;1.00
20463;DHT22;10390;53.566;9.980;2023-07-29T08:53:54;28.00;1.00
20463;DHT22;10390;53.566;9.980;2023-07-29T08:56:20;28.00;1.00
20463;DHT22;10390;53.566;9.980;2023-07-29T08:58:46;28.00;1.00
20463;DHT22;10390;53.566;9.980;2023-07-29T09:01:12;28.00;1.00
20463;DHT22;10390;53.566;9.980;2023-07-29T09:03:40;28.00;1.00
20463;DHT22;10390;53.566;9.980;2023-07-29T09:06:07;28.00;1.00
20463;DHT22;10390;53.566;9.980;2023-07-29T09:08:33;28.00;1.00
20463;DHT22;10390;53.566;9.980;2023-07-29T09:10:59;28.00;1.00
20463;DHT22;10390;53.566;9.980;2023-07-29T09:13:25;28.00;1.00
20463;DHT22;10390;53.566;9.980;2023-07-29T09:15:54;28.00;1.00
20463;DHT22;10390;53.566;9.980;2023-07-29T09:18:26;28.00;1.00
20463;DHT22;10390;53.566;9.980;2023-07-29T09:20:52;28.00;1.00
20463;DHT22;10390;53.566;9.980;2023-07-29T09:23:18;28.00;1.00
20463;DHT22;10390;53.566;9.980;2023-07-29T09:25:46;28.00;1.00
20463;DHT22;10390;53.566;9.980;2023-07-29T09:28:16;28.00;1.00
20463;DHT22;10390;53.566;9.980;2023-07-29T09:30:45;28.00;1.00
20463;DHT22;10390;53.566;9.980;2023-07-29T09:33:11;28.00;1.00
20463;DHT22;10390;53.566;9.980;2023-07-29T09:35:37;28.00;1.00
20463;DHT22;10390;53.566;9.980;2023-07-29T09:38:04;28.00;1.00
20463;DHT22;10390;53.566;9.980;2023-07-29T09:40:40;28.10;1.00
20463;DHT22;10390;53.566;9.980;2023-07-29T09:43:07;28.10;1.00
20463;DHT22;10390;53.566;9.980;2023-07-29T09:45:35;28.10;1.00
20463;DHT22;10390;53.566;9.980;2023-07-29T09:48:01;28.10;1.00
20463;DHT22;10390;53.566;9.980;2023-07-29T09:50:28;28.10;1.00
20463;DHT22;10390;53.566;9.980;2023-07-29T09:52:54;28.10;1.00
20463;DHT22;10390;53.566;9.980;2023-07-29T09:55:24;28.20;1.00
20463;DHT22;10390;53.566;9.980;2023-07-29T09:58:02;28.10;1.00
20463;DHT22;10390;53.566;9.980;2023-07-29T10:00:33;28.20;1.00
20463;DHT22;10390;53.566;9.980;2023-07-29T10:03:00;28.20;1.00
20463;DHT22;10390;53.566;9.980;2023-07-29T10:05:27;28.30;1.00
20463;DHT22;10390;53.566;9.980;2023-07-29T10:07:54;28.30;1.00
20463;DHT22;10390;53.566;9.980;2023-07-29T10:10:20;28.30;1.00
20463;DHT22;10390;53.566;9.980;2023-07-29T10:12:46;28.30;1.00
20463;DHT22;10390;53.566;9.980;2023-07-29T10:15:12;28.40;1.00
20463;DHT22;10390;53.566;9.980;2023-07-29T10:17:39;28.40;1.00
20463;DHT22;10390;53.566;9.980;2023-07-29T10:20:06;28.40;1.00
20463;DHT22;10390;53.566;9.980;2023-07-29T10:22:41;28.40;1.00
20463;DHT22;10390;53.566;9.980;2023-07-29T10:25:15;28.40;1.00
20463;DHT22;10390;53.566;9.980;2023-07-29T10:27:59;28.50;1.00
20463;DHT22;10390;53.566;9.980;2023-07-29T10:30:28;28.50;1.00
20463;DHT22;10390;53.566;9.980;2023-07-29T10:32:55;28.50;1.00
20463;DHT22;10390;53.566;9.980;2023-07-29T10:35:23;28.50;1.00
20463;DHT22;10390;53.566;9.980;2023-07-29T10:37:49;28.50;1.00
20463;DHT22;10390;53.566;9.980;2023-07-29T10:40:16;28.50;1.00
20463;DHT22;10390;53.566;9.980;2023-07-29T10:43:06;28.50;1.00
20463;DHT22;10390;53.566;9.980;2023-07-29T10:45:41;28.50;1.00
20463;DHT22;10390;53.566;9.980;2023-07-29T10:48:12;28.50;1.00
20463;DHT22;10390;53.566;9.980;2023-07-29T10:50:37;28.60;1.00
20463;DHT22;10390;53.566;9.980;2023-07-29T10:53:04;28.50;1.00
20463;DHT22;10390;53.566;9.980;2023-07-29T10:55:32;28.60;1.00
20463;DHT22;10390;53.566;9.980;2023-07-29T10:58:07;28.50;1.00
20463;DHT22;10390;53.566;9.980;2023-07-29T11:00:33;28.60;1.00
20463;DHT22;10390;53.566;9.980;2023-07-29T11:03:06;28.60;1.00
20463;DHT22;10390;53.566;9.980;2023-07-29T11:08:43;28.60;1.00
20463;DHT22;10390;53.566;9.980;2023-07-29T11:11:12;28.60;1.00
20463;DHT22;10390;53.566;9.980;2023-07-29T11:13:38;28.60;1.00
20463;DHT22;10390;53.566;9.980;2023-07-29T11:16:04;28.60;1.00
20463;DHT22;10390;53.566;9.980;2023-07-29T11:18:34;28.60;1.00
20463;DHT22;10390;53.566;9.980;2023-07-29T11:21:02;28.60;1.00
20463;DHT22;10390;53.566;9.980;2023-07-29T11:23:36;28.60;1.00
20463;DHT22;10390;53.566;9.980;2023-07-29T11:26:03;28.60;1.00
20463;DHT22;10390;53.566;9.980;2023-07-29T11:28:29;28.60;1.00
20463;DHT22;10390;53.566;9.980;2023-07-29T11:30:55;28.60;1.00
20463;DHT22;10390;53.566;9.980;2023-07-29T11:33:24;28.60;1.00
20463;DHT22;10390;53.566;9.980;2023-07-29T11:35:50;28.60;1.00
20463;DHT22;10390;53.566;9.980;2023-07-29T11:38:17;28.60;1.00
20463;DHT22;10390;53.566;9.980;2023-07-29T11:40:53;28.60;1.00
20463;DHT22;10390;53.566;9.980;2023-07-29T11:43:18;28.60;1.00
20463;DHT22;10390;53.566;9.980;2023-07-29T11:45:44;28.60;1.00
20463;DHT22;10390;53.566;9.980;2023-07-29T11:48:10;28.60;1.00
20463;DHT22;10390;53.566;9.980;2023-07-29T11:50:36;28.70;1.00
20463;DHT22;10390;53.566;9.980;2023-07-29T11:53:02;28.70;1.00
20463;DHT22;10390;53.566;9.980;2023-07-29T11:55:28;28.70;1.00
20463;DHT22;10390;53.566;9.980;2023-07-29T11:57:53;28.70;1.00
20463;DHT22;10390;53.566;9.980;2023-07-29T12:00:20;28.70;1.00
20463;DHT22;10390;53.566;9.980;2023-07-29T12:02:47;28.70;1.00
20463;DHT22;10390;53.566;9.980;2023-07-29T12:05:14;28.70;1.00
20463;DHT22;10390;53.566;9.980;2023-07-29T12:07:41;28.70;1.00
20463;DHT22;10390;53.566;9.980;2023-07-29T12:10:07;28.70;1.00
20463;DHT22;10390;53.566;9.980;2023-07-29T12:12:47;28.70;1.00
20463;DHT22;10390;53.566;9.980;2023-07-29T12:15:13;28.70;1.00
20463;DHT22;10390;53.566;9.980;2023-07-29T12:17:42;28.80;1.00
20463;DHT22;10390;53.566;9.980;2023-07-29T12:20:09;28.80;1.00
20463;DHT22;10390;53.566;9.980;2023-07-29T12:22:35;28.80;1.00
20463;DHT22;10390;53.566;9.980;2023-07-29T12:25:02;28.80;1.00
20463;DHT22;10390;53.566;9.980;2023-07-29T12:27:30;28.80;1.00
20463;DHT22;10390;53.566;9.980;2023-07-29T12:29:56;28.80;1.00
20463;DHT22;10390;53.566;9.980;2023-07-29T12:32:25;28.80;1.00
20463;DHT22;10390;53.566;9.980;2023-07-29T12:34:53;28.80;1.00
20463;DHT22;10390;53.566;9.980;2023-07-29T12:37:19;28.80;1.00
20463;DHT22;10390;53.566;9.980;2023-07-29T12:39:45;28.80;1.00
20463;DHT22;10390;53.566;9.980;2023-07-29T12:42:10;28.90;1.00
20463;DHT22;10390;53.566;9.980;2023-07-29T12:44:37;28.90;1.00
20463;DHT22;10390;53.566;9.980;2023-07-29T12:47:05;28.80;1.00
20463;DHT22;10390;53.566;9.980;2023-07-29T12:49:31;28.90;1.00
20463;DHT22;10390;53.566;9.980;2023-07-29T12:51:57;28.90;1.00
20463;DHT22;10390;53.566;9.980;2023-07-29T12:54:23;28.90;1.00
20463;DHT22;10390;53.566;9.980;2023-07-29T12:56:49;28.90;1.00
20463;DHT22;10390;53.566;9.980;2023-07-29T12:59:14;28.90;1.00
20463;DHT22;10390;53.566;9.980;2023-07-29T13:01:40;28.90;1.00
20463;DHT22;10390;53.566;9.980;2023-07-29T13:04:06;28.90;1.00
20463;DHT22;10390;53.566;9.980;2023-07-29T13:06:31;28.90;1.00
20463;DHT22;10390;53.566;9.980;2023-07-29T13:08:57;28.90;1.00
20463;DHT22;10390;53.566;9.980;2023-07-29T13:11:22;28.90;1.00
20463;DHT22;10390;53.566;9.980;2023-07-29T13:13:48;28.90;1.00
20463;DHT22;10390;53.566;9.980;2023-07-29T13:16:14;28.90;1.00
20463;DHT22;10390;53.566;9.980;2023-07-29T13:18:39;28.90;1.00
20463;DHT22;10390;53.566;9.980;2023-07-29T13:21:06;28.90;1.00
20463;DHT22;10390;53.566;9.980;2023-07-29T13:23:31;28.90;1.00
20463;DHT22;10390;53.566;9.980;2023-07-29T13:25:57;28.90;1.00
20463;DHT22;10390;53.566;9.980;2023-07-29T13:28:23;28.90;1.00
20463;DHT22;10390;53.566;9.980;2023-07-29T13:30:49;28.90;1.00
20463;DHT22;10390;53.566;9.980;2023-07-29T13:33:14;28.90;1.00
20463;DHT22;10390;53.566;9.980;2023-07-29T13:35:40;28.90;1.00
20463;DHT22;10390;53.566;9.980;2023-07-29T13:38:06;28.90;1.00
20463;DHT22;10390;53.566;9.980;2023-07-29T13:40:31;28.90;1.00
20463;DHT22;10390;53.566;9.980;2023-07-29T13:42:57;28.90;1.00
20463;DHT22;10390;53.566;9.980;2023-07-29T13:45:23;28.90;1.00
20463;DHT22;10390;53.566;9.980;2023-07-29T13:47:49;28.90;1.00
20463;DHT22;10390;53.566;9.980;2023-07-29T13:50:16;28.90;1.00
20463;DHT22;10390;53.566;9.980;2023-07-29T13:52:41;28.90;1.00
20463;DHT22;10390;53.566;9.980;2023-07-29T13:55:07;28.90;1.00
20463;DHT22;10390;53.566;9.980;2023-07-29T13:57:33;28.90;1.00
20463;DHT22;10390;53.566;9.980;2023-07-29T13:59:59;28.90;1.00
20463;DHT22;10390;53.566;9.980;2023-07-29T14:02:24;28.90;1.00
20463;DHT22;10390;53.566;9.980;2023-07-29T14:04:54;28.90;1.00
20463;DHT22;10390;53.566;9.980;2023-07-29T14:07:19;28.90;1.00
20463;DHT22;10390;53.566;9.980;2023-07-29T14:09:45;28.90;1.00
20463;DHT22;10390;53.566;9.980;2023-07-29T14:12:11;29.00;1.00
20463;DHT22;10390;53.566;9.980;2023-07-29T14:14:38;28.90;1.00
20463;DHT22;10390;53.566;9.980;2023-07-29T14:17:04;28.90;1.00
20463;DHT22;10390;53.566;9.980;2023-07-29T14:19:31;28.90;1.00
20463;DHT22;10390;53.566;9.980;2023-07-29T14:21:56;28.90;1.00
20463;DHT22;10390;53.566;9.980;2023-07-29T14:24:22;28.90;1.00
20463;DHT22;10390;53.566;9.980;2023-07-29T14:26:48;28.90;1.00
20463;DHT22;10390;53.566;9.980;2023-07-29T14:29:13;28.90;1.00
20463;DHT22;10390;53.566;9.980;2023-07-29T14:31:39;28.90;1.00
20463;DHT22;10390;53.566;9.980;2023-07-29T14:34:04;28.90;1.00
20463;DHT22;10390;53.566;9.980;2023-07-29T14:36:30;28.90;1.00
20463;DHT22;10390;53.566;9.980;2023-07-29T14:38:55;28.90;1.00
20463;DHT22;10390;53.566;9.980;2023-07-29T14:41:21;28.90;1.00
20463;DHT22;10390;53.566;9.980;2023-07-29T14:43:47;28.90;1.00
20463;DHT22;10390;53.566;9.980;2023-07-29T14:46:12;28.90;1.00
20463;DHT22;10390;53.566;9.980;2023-07-29T14:48:38;28.90;1.00
20463;DHT22;10390;53.566;9.980;2023-07-29T14:51:03;28.90;1.00
20463;DHT22;10390;53.566;9.980;2023-07-29T14:53:29;28.90;1.00
20463;DHT22;10390;53.566;9.980;2023-07-29T14:55:54;28.90;1.00
20463;DHT22;10390;53.566;9.980;2023-07-29T14:58:20;28.90;1.00
20463;DHT22;10390;53.566;9.980;2023-07-29T15:00:46;28.90;1.00
20463;DHT22;10390;53.566;9.980;2023-07-29T15:03:11;28.90;1.00
20463;DHT22;10390;53.566;9.980;2023-07-29T15:05:37;28.90;1.00
20463;DHT22;10390;53.566;9.980;2023-07-29T15:08:02;28.90;1.00
20463;DHT22;10390;53.566;9.980;2023-07-29T15:10:28;28.90;1.00
20463;DHT22;10390;53.566;9.980;2023-07-29T15:12:53;28.90;1.00
20463;DHT22;10390;53.566;9.980;2023-07-29T15:15:19;28.90;1.00
20463;DHT22;10390;53.566;9.980;2023-07-29T15:17:45;29.00;1.00
20463;DHT22;10390;53.566;9.980;2023-07-29T15:20:11;28.90;1.00
20463;DHT22;10390;53.566;9.980;2023-07-29T15:22:36;28.90;1.00
20463;DHT22;10390;53.566;9.980;2023-07-29T15:25:02;28.90;1.00
20463;DHT22;10390;53.566;9.980;2023-07-29T15:27:28;28.90;1.00
20463;DHT22;10390;53.566;9.980;2023-07-29T15:29:54;28.90;1.00
20463;DHT22;10390;53.566;9.980;2023-07-29T15:32:20;28.90;1.00
20463;DHT22;10390;53.566;9.980;2023-07-29T15:34:46;28.90;1.00
20463;DHT22;10390;53.566;9.980;2023-07-29T15:37:11;28.90;1.00
20463;DHT22;10390;53.566;9.980;2023-07-29T15:39:37;28.90;1.00
20463;DHT22;10390;53.566;9.980;2023-07-29T15:42:03;28.90;1.00
20463;DHT22;10390;53.566;9.980;2023-07-29T15:44:29;28.90;1.00
20463;DHT22;10390;53.566;9.980;2023-07-29T15:46:54;28.90;1.00
20463;DHT22;10390;53.566;9.980;2023-07-29T15:49:22;28.90;1.00
20463;DHT22;10390;53.566;9.980;2023-07-29T15:51:47;28.90;1.00